Lake Windsor, Wisconsin
Current Conditions -  °F | °C
As of 6:53 AM on Friday 24 Oct 2014 (Local Time) from KMSN Reporting Station
Haze Haze  
Wind Chill: 49°   Ceiling: 200
Heat Index: 49°   Visibility: 1mi
Dew Point: 48°   Wind: 0mph
Humidity: 97%   Direction: NA
Pressure: 30.03"   Gusts: NA
Location:  43.2117°N, 89.3436°W
Report Text: KMSN 241153Z 00000KT 1SM R36/4500VP6000FT BR OVC002 09/09 A3003 RMK AO2 SFC VIS 1 1/2 SLP173 70010 T00940089 10106 20094 58002
Loading
Personal Weather Stations






























Interactive Weather Map
Tropical Storm Tracking
New forecast layout! Learn more

10-Day Weather Forecast

Advertisements
Track Severe Weather on mobile